Meath Environmental Platform

Observations for Trim Market St

Time AQI Temp °C Hum % Pres Pa CO μg/m³ H₂S μg/m³ NO μg/m³ NO₂ μg/m³ O₃ μg/m³ SO₂ μg/m³ PM1 μg/m³ PM2.5 μg/m³ PM10 μg/m³
Sunday 12 July 2026
13:09 1 34.1 33 66,234 0 0 0 0 42.83 0 2.14 5.87 6.46
13:08 1 34 33 66,214 0 0 0 0 31.85 0 2.14 5.33 5.86
13:06 1 34 33 66,204 0 0 0 0 40.85 0 1.43 5.86 6.68
12:59 1 33.8 35 66,165 0 0 0 0 20.02 0 2.14 5.79 5.85
12:56 1 33.6 35 66,127 0 0 0 0 32.45 0 2.14 5.78 5.86
12:52 1 33.4 35 66,117 0 0 0 0 38.08 0 1.43 4.18 5.02
12:49 1 33.5 35 66,113 0 0 0 0 37.08 0 0.71 3.65 4.01
12:46 1 33.5 35 66,127 0 0 0 0 37.05 0 1.43 4.71 5.18
12:45 1 33.4 35 66,121 0 0 0 0 34.23 0 2.14 4.7 5.17
12:44 1 33.4 35 66,111 0 0 0 2.77 37.2 0 0.71 4.16 4.58
12:43 1 33.4 35 66,127 0 0 0 2.07 42.63 0 2.14 5.23 6.69
12:42 1 33.3 35 66,123 0 0 0 1.82 47.31 0 1.43 4.71 5.18
12:41 1 33.3 35 66,119 0 0 0 0.04 44.49 0 0.71 4.18 4.6
12:40 1 33.3 35 66,113 0 0 0 0 34.19 0 2.14 5.79 6.69
12:39 1 33.3 35 66,106 0 0 0 0.34 39.59 0 0.71 4.18 4.6
12:38 1 33.3 35 66,094 0 0 0 0 35.23 0 2.14 5.24 5.77
12:36 1 33.3 35 66,102 0 0 0 0 41.24 0 2.14 5.23 5.76
12:31 1 33.4 35 66,125 0 0 0 0 34.78 0 2.14 4.71 5.85
12:30 1 33.4 35 66,092 0 0 0 0 46.96 0 2.85 5.78 8.36
12:27 1 33.4 35 66,086 0 0 0 0 32.45 0 2.14 5.77 7.53